This is the latest recevied weather packets stored in our database for station/object KP4FJC. If no packets are shown the sender has not sent any weather packets the latest 10 day(s).
| Time | Temp. | Humidity | Pressure | Rain* | Wind** | Luminosity | Snow |
|---|---|---|---|---|---|---|---|
| 1778001955 | 31.67° C | 60% | 1017.7 hPa | 0 mm | - | 934 W/m² | - |
| 1778001651 | 32.78° C | 58% | 1018.2 hPa | 0 mm | - | 1030 W/m² | - |
| 1778001346 | 32.78° C | 58% | 1017.9 hPa | 0 mm | - | 919 W/m² | - |
| 1778001042 | 32.22° C | 58% | 1018.2 hPa | 0 mm | - | 927 W/m² | - |
| 1778000734 | 32.78° C | 59% | 1018.2 hPa | 0 mm | - | 856 W/m² | - |
| 1778000430 | 31.67° C | 61% | 1018.2 hPa | 0 mm | - | 871 W/m² | - |
| 1778000125 | 32.78° C | 58% | 1018.1 hPa | 0 mm | - | 940 W/m² | - |
| 1777999821 | 32.22° C | 60% | 1018.1 hPa | 0 mm | - | 945 W/m² | - |
| 1777999517 | 32.22° C | 59% | 1018.2 hPa | 0 mm | - | 698 W/m² | - |
| 1777999215 | 32.22° C | 61% | 1018.2 hPa | 0 mm | - | 932 W/m² | - |
| 1777998914 | 32.78° C | 59% | 1018.4 hPa | 0 mm | - | 194 W/m² | - |
| 1777998610 | 32.78° C | 60% | 1018.3 hPa | 0 mm | - | 706 W/m² | - |
| 1777998304 | 32.22° C | 61% | 1018.4 hPa | 0 mm | - | 267 W/m² | - |
| 1777998001 | 31.67° C | 62% | 1018.4 hPa | 0 mm | - | 180 W/m² | - |
| 1777997697 | 32.22° C | 61% | 1018.7 hPa | 0 mm | - | 932 W/m² | - |
| 1777997394 | 31.67° C | 60% | 1018.5 hPa | 0 mm | - | 933 W/m² | - |
| 1777997092 | 31.67° C | 61% | 1018.5 hPa | 0 mm | - | 929 W/m² | - |
| 1777996789 | 31.67° C | 61% | 1018.6 hPa | 0 mm | - | 943 W/m² | - |
| 1777996485 | 31.67° C | 61% | 1018.7 hPa | 0 mm | - | 1047 W/m² | - |
| 1777996182 | 31.67° C | 63% | 1018.4 hPa | 0 mm | - | 1010 W/m² | - |
| 1777995878 | 31.67° C | 65% | 1018.6 hPa | 0 mm | - | 936 W/m² | - |
| 1777995574 | 31.67° C | 63% | 1018.3 hPa | 0 mm | - | 926 W/m² | - |
| 1777995271 | 31.67° C | 65% | 1018.6 hPa | 0 mm | - | 949 W/m² | - |
| 1777994963 | 31.67° C | 65% | 1018.7 hPa | 0 mm | - | 935 W/m² | - |
| 1777994660 | 31.67° C | 64% | 1018.4 hPa | 0 mm | - | 926 W/m² | - |
* Rain latest hour (hover to see other rain measurements)
** Current wind speed in m/s (hover to see current wind gust speed)